This is the latest recevied weather packets stored in our database for station/object DB2YI-13. If no packets are shown the sender has not sent any weather packets the latest 10 day(s).
| Time | Temp. | Humidity | Pressure | Rain* | Wind** | Luminosity | Snow |
|---|---|---|---|---|---|---|---|
| 1777733402 | 25.56° C | 34% | - | 0 mm | - | - | - |
| 1777732801 | 25.56° C | 33% | - | 0 mm | - | - | - |
| 1777732201 | 25° C | 33% | - | 0 mm | - | - | - |
| 1777731601 | 25.56° C | 33% | - | 0 mm | - | - | - |
| 1777731005 | 25.56° C | 33% | - | 0 mm | - | - | - |
| 1777730401 | 25° C | 34% | - | 0 mm | - | - | - |
| 1777713602 | 21.11° C | 43% | - | 0 mm | - | - | - |
| 1777713001 | 21.11° C | 43% | - | 0 mm | - | - | - |
| 1777712402 | 20.56° C | 44% | - | 0 mm | - | - | - |
| 1777711802 | 20.56° C | 44% | - | 0 mm | - | - | - |
| 1777711201 | 19.44° C | 47% | - | 0 mm | - | - | - |
| 1777710601 | 19.44° C | 47% | - | 0 mm | - | - | - |
| 1777710001 | 19.44° C | 48% | - | 0 mm | - | - | - |
| 1777709402 | 18.89° C | 48% | - | 0 mm | - | - | - |
| 1777708801 | 18.89° C | 48% | - | 0 mm | - | - | - |
| 1777708201 | 18.33° C | 51% | - | 0 mm | - | - | - |
| 1777707601 | 17.78° C | 53% | - | 0 mm | - | - | - |
| 1777707001 | 16.67° C | 56% | - | 0 mm | - | - | - |
| 1777706401 | 16.11° C | 59% | - | 0 mm | - | - | - |
| 1777705801 | 16.11° C | 61% | - | 0 mm | - | - | - |
| 1777705201 | 15° C | 65% | - | 0 mm | - | - | - |
| 1777704601 | 13.89° C | 69% | - | 0 mm | - | - | - |
| 1777704001 | 13.33° C | 71% | - | 0 mm | - | - | - |
| 1777703401 | 12.78° C | 75% | - | 0 mm | - | - | - |
| 1777702803 | 11.11° C | 77% | - | 0 mm | - | - | - |
* Rain latest hour (hover to see other rain measurements)
** Current wind speed in m/s (hover to see current wind gust speed)